Time;durP1;ratioP1;P1;durP2;ratioP2;P2;SDS_P1;SDS_P2;PMS_P1;PMS_P2;Temp;Humidity;BMP_temperature;BMP_pressure;BME280_temperature;BME280_humidity;BME280_pressure;Samples;Min_cycle;Max_cycle;Signal;HPM_P1;HPM_P2
2022/10/10 00:01:25;;;;;;;20.97;19.07;;;;;;;10.99;100.00;93551.81;5069941;28;20254;-73
2022/10/10 00:03:51;;;;;;;20.27;18.27;;;;;;;11.01;100.00;93560.19;5069586;28;20221;-74
2022/10/10 00:06:17;;;;;;;21.07;19.27;;;;;;;10.99;100.00;93554.41;5069211;28;20213;-73
2022/10/10 00:08:43;;;;;;;19.77;17.77;;;;;;;10.83;100.00;93532.69;5069125;28;20243;-75
2022/10/10 00:11:10;;;;;;;19.30;17.20;;;;;;;11.07;100.00;93565.16;5068535;28;20223;-74
2022/10/10 00:13:35;;;;;;;17.63;16.00;;;;;;;10.87;100.00;93541.59;5069739;28;20315;-74
2022/10/10 00:16:01;;;;;;;18.63;16.97;;;;;;;10.86;100.00;93549.69;5067953;28;20183;-75
2022/10/10 00:18:27;;;;;;;18.60;17.13;;;;;;;10.76;100.00;93513.88;5069263;28;20269;-74
2022/10/10 00:20:53;;;;;;;17.80;16.27;;;;;;;10.90;100.00;93538.47;5069359;28;20248;-74
2022/10/10 00:23:19;;;;;;;18.23;16.83;;;;;;;11.00;100.00;93548.16;5069019;28;20237;-74
2022/10/10 00:25:45;;;;;;;18.57;16.67;;;;;;;11.12;100.00;93551.31;5069535;28;20196;-74
2022/10/10 00:28:11;;;;;;;17.33;15.83;;;;;;;11.02;100.00;93561.72;5068786;28;20228;-74
2022/10/10 00:30:37;;;;;;;17.70;16.10;;;;;;;10.89;100.00;93534.28;5068633;28;20201;-74
2022/10/10 00:33:02;;;;;;;18.27;16.57;;;;;;;10.88;100.00;93551.00;5068911;28;20292;-74
2022/10/10 00:35:28;;;;;;;18.53;15.70;;;;;;;10.77;100.00;93538.94;5068173;28;20238;-74
2022/10/10 00:37:53;;;;;;;17.43;15.97;;;;;;;10.88;100.00;93558.84;5067928;28;20260;-74
2022/10/10 00:40:19;;;;;;;17.93;16.23;;;;;;;10.81;100.00;93553.06;5068272;28;20200;-74
2022/10/10 00:42:45;;;;;;;18.97;17.40;;;;;;;10.58;100.00;93531.84;5068539;28;20193;-75
2022/10/10 00:45:36;;;;;;;20.37;18.57;;;;;;;10.80;100.00;93548.88;5068706;28;20194;-74
2022/10/10 00:48:07;;;;;;;19.57;17.87;;;;;;;10.67;100.00;93564.25;5069192;28;20233;-74
2022/10/10 00:50:37;;;;;;;18.77;17.07;;;;;;;10.52;100.00;93519.81;5069247;28;20300;-71
2022/10/10 00:53:06;;;;;;;17.97;16.00;;;;;;;10.72;100.00;93549.38;5068196;28;20236;-74
2022/10/10 00:55:32;;;;;;;18.43;16.87;;;;;;;10.45;100.00;93509.59;5069743;28;20248;-74
2022/10/10 00:57:58;;;;;;;18.83;16.97;;;;;;;10.75;100.00;93554.09;5067565;28;20225;-75
2022/10/10 01:00:23;;;;;;;19.33;17.23;;;;;;;10.75;100.00;93561.94;5069131;28;20260;-75
2022/10/10 01:02:48;;;;;;;20.37;18.20;;;;;;;10.60;100.00;93548.03;5067614;28;20210;-73
2022/10/10 01:05:14;;;;;;;21.97;17.30;;;;;;;10.42;100.00;93551.88;5069051;28;20185;-74
2022/10/10 01:07:40;;;;;;;17.63;15.77;;;;;;;10.68;100.00;93563.19;5068677;28;20268;-74
2022/10/10 01:10:14;;;;;;;18.30;16.77;;;;;;;10.58;100.00;93550.91;5069161;28;20173;-74
2022/10/10 01:12:53;;;;;;;18.90;17.03;;;;;;;10.47;100.00;93543.28;5067891;28;20256;-75
2022/10/10 01:15:44;;;;;;;19.00;17.20;;;;;;;10.51;100.00;93558.16;5068153;28;20194;-75
2022/10/10 01:18:41;;;;;;;19.60;17.60;;;;;;;10.48;100.00;93561.28;5067504;28;20801;-75
2022/10/10 01:21:43;;;;;;;18.70;16.83;;;;;;;10.46;100.00;93545.09;5052336;28;20297;-73
2022/10/10 01:24:17;;;;;;;18.93;17.07;;;;;;;10.61;100.00;93566.06;5067650;28;20256;-75
2022/10/10 01:27:01;;;;;;;20.57;18.47;;;;;;;10.49;100.00;93562.09;5069207;28;20216;-75
2022/10/10 01:29:31;;;;;;;19.83;18.07;;;;;;;10.45;100.00;93566.22;5068341;28;20253;-74
2022/10/10 01:32:09;;;;;;;17.83;16.23;;;;;;;10.46;100.00;93558.13;5068906;28;20251;-74
2022/10/10 01:35:02;;;;;;;18.73;17.10;;;;;;;10.46;100.00;93570.44;5068105;28;20248;-74
2022/10/10 01:37:47;;;;;;;19.97;18.17;;;;;;;10.41;100.00;93563.34;5068822;28;20211;-75
2022/10/10 01:40:21;;;;;;;19.63;17.93;;;;;;;10.54;100.00;93570.72;5068140;28;20197;-75
2022/10/10 01:42:58;;;;;;;20.13;18.13;;;;;;;10.51;100.00;93571.22;5067869;28;20192;-74
2022/10/10 01:45:25;;;;;;;18.47;16.60;;;;;;;10.44;100.00;93549.78;5084151;28;20203;-73
2022/10/10 01:47:54;;;;;;;19.73;17.87;;;;;;;10.55;100.00;93564.44;5068358;28;20222;-72
2022/10/10 01:50:22;;;;;;;19.67;17.90;;;;;;;10.40;100.00;93563.59;5072223;28;20212;-73
2022/10/10 01:52:56;;;;;;;18.17;16.37;;;;;;;10.38;100.00;93558.63;5072163;28;20205;-73
2022/10/10 01:55:27;;;;;;;19.07;17.30;;;;;;;10.33;100.00;93563.03;5071953;28;20191;-73
2022/10/10 01:58:22;;;;;;;17.90;16.40;;;;;;;10.31;100.00;93558.06;5070138;28;20236;-72
2022/10/10 02:00:58;;;;;;;17.57;15.97;;;;;;;10.45;100.00;93559.19;5043030;28;20214;-73
2022/10/10 02:03:36;;;;;;;17.73;16.10;;;;;;;10.35;100.00;93548.69;5069920;28;21726;-73
2022/10/10 02:06:27;;;;;;;19.27;17.63;;;;;;;10.26;100.00;93558.03;5071421;28;20202;-73
2022/10/10 02:08:58;;;;;;;20.10;18.20;;;;;;;10.12;100.00;93543.06;5071530;28;20226;-73
2022/10/10 02:11:27;;;;;;;19.80;17.40;;;;;;;10.30;100.00;93559.13;5087014;28;20178;-72
2022/10/10 02:14:01;;;;;;;19.50;17.80;;;;;;;10.40;100.00;93563.59;5071510;28;20221;-72
2022/10/10 02:16:30;;;;;;;19.27;17.53;;;;;;;10.39;100.00;93568.03;5071615;28;20188;-72
2022/10/10 02:18:58;;;;;;;18.50;16.90;;;;;;;10.16;100.00;93542.34;5070803;28;20255;-71
2022/10/10 02:21:26;;;;;;;18.17;16.47;;;;;;;10.36;100.00;93562.53;5071226;28;20175;-73
2022/10/10 02:23:54;;;;;;;18.87;17.03;;;;;;;10.44;100.00;93568.06;5071293;28;20218;-73
2022/10/10 02:26:22;;;;;;;20.10;17.47;;;;;;;10.32;100.00;93557.03;5071494;28;20305;-74
2022/10/10 02:28:54;;;;;;;19.50;17.57;;;;;;;10.57;100.00;93567.59;5071504;28;20256;-73
2022/10/10 02:31:30;;;;;;;16.80;15.33;;;;;;;10.60;100.00;93564.47;5071531;28;20181;-73
2022/10/10 02:34:03;;;;;;;17.23;15.67;;;;;;;10.66;100.00;93573.91;5071259;28;20754;-72
2022/10/10 02:36:29;;;;;;;17.47;15.83;;;;;;;10.59;100.00;93567.34;5070612;28;20193;-73
2022/10/10 02:38:57;;;;;;;16.37;14.97;;;;;;;10.65;100.00;93572.34;5070582;28;20265;-72
2022/10/10 02:41:24;;;;;;;16.10;14.70;;;;;;;10.64;100.00;93570.78;5071118;28;20189;-73
2022/10/10 02:43:50;;;;;;;16.70;15.17;;;;;;;10.62;100.00;93561.59;5071009;28;20221;-73
2022/10/10 02:46:16;;;;;;;17.73;16.20;;;;;;;10.56;100.00;93565.25;5070920;28;20222;-73
2022/10/10 02:48:42;;;;;;;15.80;14.27;;;;;;;10.58;100.00;93573.63;5070491;28;20247;-72
2022/10/10 02:51:09;;;;;;;16.63;15.27;;;;;;;10.50;100.00;93537.53;5071486;28;20210;-73
2022/10/10 02:53:36;;;;;;;16.80;15.37;;;;;;;10.74;100.00;93570.78;5070575;28;20241;-74
2022/10/10 02:56:01;;;;;;;19.03;16.93;;;;;;;10.49;100.00;93552.41;5070725;28;20180;-73
2022/10/10 02:58:27;;;;;;;17.40;15.97;;;;;;;10.47;100.00;93562.34;5070664;28;20237;-73
2022/10/10 03:00:52;;;;;;;18.43;16.83;;;;;;;10.64;100.00;93570.78;5068942;28;20224;-73
2022/10/10 03:03:19;;;;;;;19.07;16.73;;;;;;;10.50;100.00;93564.44;5063277;28;20225;-73
2022/10/10 03:05:44;;;;;;;16.53;15.07;;;;;;;10.48;100.00;93566.50;5050659;28;20460;-73
2022/10/10 03:08:09;;;;;;;17.50;15.90;;;;;;;10.45;100.00;93569.63;5049884;28;20230;-73
2022/10/10 03:10:35;;;;;;;15.73;14.33;;;;;;;10.46;100.00;93563.34;5050433;28;20195;-73
2022/10/10 03:13:00;;;;;;;16.93;15.13;;;;;;;10.37;100.00;93553.66;5050661;28;20739;-73
2022/10/10 03:15:25;;;;;;;15.40;14.07;;;;;;;10.39;100.00;93554.19;5050573;28;20195;-73
2022/10/10 03:17:51;;;;;;;16.60;15.03;;;;;;;10.23;100.00;93550.72;5053243;28;20193;-72
2022/10/10 03:20:16;;;;;;;16.17;14.90;;;;;;;10.24;100.00;93554.88;5070458;28;20190;-73
2022/10/10 03:22:41;;;;;;;15.53;14.33;;;;;;;10.27;100.00;93570.06;5070075;28;20202;-73
2022/10/10 03:25:07;;;;;;;14.47;13.33;;;;;;;10.40;100.00;93581.84;5071123;28;20192;-72
2022/10/10 03:27:32;;;;;;;15.43;14.27;;;;;;;10.19;100.00;93575.75;5070795;28;20206;-73
2022/10/10 03:29:58;;;;;;;14.50;13.40;;;;;;;10.12;100.00;93567.34;5069880;28;20217;-73
2022/10/10 03:32:23;;;;;;;15.13;13.27;;;;;;;9.96;100.00;93550.00;5069718;28;20285;-73
2022/10/10 03:34:48;;;;;;;14.23;13.13;;;;;;;9.98;100.00;93560.19;5070358;28;20308;-73
2022/10/10 03:37:14;;;;;;;13.53;12.73;;;;;;;10.00;100.00;93571.16;5070720;28;20197;-73
2022/10/10 03:39:39;;;;;;;14.20;13.10;;;;;;;10.03;100.00;93574.06;5070049;28;20233;-73
2022/10/10 03:42:04;;;;;;;13.43;12.53;;;;;;;9.98;100.00;93565.41;5070281;28;20181;-72
2022/10/10 03:44:30;;;;;;;14.07;13.03;;;;;;;10.04;100.00;93580.84;5053264;28;20210;-74
2022/10/10 03:46:55;;;;;;;14.00;12.73;;;;;;;9.91;100.00;93565.63;5050263;28;20210;-73
2022/10/10 03:49:21;;;;;;;13.90;12.90;;;;;;;10.02;100.00;93576.91;5063671;28;20256;-72
2022/10/10 03:51:46;;;;;;;14.40;13.40;;;;;;;9.84;100.00;93561.66;5068736;28;20209;-73
2022/10/10 03:54:12;;;;;;;14.10;12.80;;;;;;;9.79;100.00;93562.41;5069189;28;20214;-73
2022/10/10 03:56:37;;;;;;;14.03;12.93;;;;;;;9.74;100.00;93549.34;5069515;28;20213;-75
2022/10/10 03:59:04;;;;;;;14.70;13.70;;;;;;;9.65;100.00;93550.81;5068074;28;20228;-74
2022/10/10 04:01:30;;;;;;;14.40;13.40;;;;;;;9.62;100.00;93551.31;5066232;28;20221;-74
2022/10/10 04:03:56;;;;;;;14.07;12.93;;;;;;;9.86;100.00;93572.63;5068445;28;20225;-74
2022/10/10 04:06:21;;;;;;;13.77;12.87;;;;;;;9.78;100.00;93577.28;5068866;28;20205;-70
2022/10/10 04:08:47;;;;;;;14.80;13.70;;;;;;;9.64;100.00;93564.91;5067943;28;20236;-71
2022/10/10 04:11:13;;;;;;;14.53;13.13;;;;;;;9.64;100.00;93564.91;5069027;28;20178;-71
2022/10/10 04:13:38;;;;;;;13.60;12.63;;;;;;;9.64;100.00;93578.72;5067244;28;20293;-70
2022/10/10 04:16:04;;;;;;;15.17;14.10;;;;;;;9.77;100.00;93582.75;5068267;28;20299;-70
2022/10/10 04:18:30;;;;;;;14.00;13.07;;;;;;;9.68;100.00;93581.63;5068141;28;20283;-70
2022/10/10 04:20:55;;;;;;;14.47;13.30;;;;;;;9.61;100.00;93573.22;5068116;28;20185;-80
2022/10/10 04:23:21;;;;;;;13.57;12.57;;;;;;;9.54;100.00;93583.84;5068408;28;20221;-75
2022/10/10 04:25:50;;;;;;;13.47;12.47;;;;;;;9.55;100.00;93569.78;5069215;28;20192;-75
2022/10/10 04:28:15;;;;;;;13.97;12.87;;;;;;;9.52;100.00;93546.03;5067247;28;20216;-78
2022/10/10 04:30:41;;;;;;;16.00;14.63;;;;;;;9.64;100.00;93576.13;5068865;28;20216;-75
2022/10/10 04:33:07;;;;;;;16.33;14.93;;;;;;;9.59;100.00;93577.88;5068513;28;20228;-76
2022/10/10 04:35:32;;;;;;;16.93;15.43;;;;;;;9.66;100.00;93584.47;5068376;28;20196;-75
2022/10/10 04:37:58;;;;;;;15.93;14.60;;;;;;;9.55;100.00;93576.81;5068047;28;20224;-75
2022/10/10 04:40:23;;;;;;;17.47;15.77;;;;;;;9.66;100.00;93583.69;5068672;28;20220;-76
2022/10/10 04:42:49;;;;;;;15.70;14.40;;;;;;;9.59;100.00;93570.84;5067172;28;20189;-76
2022/10/10 04:45:14;;;;;;;18.77;15.23;;;;;;;9.62;100.00;93582.59;5067736;28;20177;-76
2022/10/10 04:47:39;;;;;;;16.30;15.00;;;;;;;9.63;100.00;93578.97;5067771;28;20216;-76
2022/10/10 04:50:05;;;;;;;15.77;14.20;;;;;;;9.69;100.00;93593.63;5068071;28;20207;-76
2022/10/10 04:52:31;;;;;;;16.27;14.33;;;;;;;9.55;100.00;93589.84;5067981;28;20201;-75
2022/10/10 04:54:56;;;;;;;15.23;13.87;;;;;;;9.45;100.00;93558.47;5066466;28;20218;-75
2022/10/10 04:57:22;;;;;;;15.20;14.00;;;;;;;9.77;100.00;93593.16;5067751;28;20182;-76
2022/10/10 04:59:47;;;;;;;15.43;13.90;;;;;;;9.60;100.00;93564.59;5066726;28;20213;-75
2022/10/10 05:02:12;;;;;;;14.87;13.47;;;;;;;9.73;100.00;93573.81;5064480;28;20213;-76
2022/10/10 05:04:38;;;;;;;15.37;13.77;;;;;;;9.98;100.00;93597.50;5066420;28;20228;-75
2022/10/10 05:07:03;;;;;;;13.87;12.63;;;;;;;10.02;100.00;93577.72;5066848;28;20236;-74
2022/10/10 05:09:28;;;;;;;22.67;20.33;;;;;;;10.16;100.00;93599.75;5065990;28;20229;-76
2022/10/10 05:11:54;;;;;;;14.20;12.97;;;;;;;10.09;100.00;93574.88;5067723;28;20202;-76
2022/10/10 05:14:19;;;;;;;14.37;13.23;;;;;;;10.11;100.00;93593.69;5067413;28;20255;-75
2022/10/10 05:16:44;;;;;;;15.10;14.00;;;;;;;10.22;100.00;93596.13;5067596;28;20210;-75
2022/10/10 05:19:10;;;;;;;13.23;11.70;;;;;;;10.28;100.00;93584.69;5052968;28;20226;-76
2022/10/10 05:21:35;;;;;;;14.03;12.83;;;;;;;10.54;100.00;93585.59;5048132;28;20198;-75
2022/10/10 05:24:01;;;;;;;13.83;12.83;;;;;;;10.47;100.00;93580.63;5048053;28;20268;-76
2022/10/10 05:26:26;;;;;;;13.43;12.33;;;;;;;10.65;100.00;93608.91;5051618;28;20310;-76
2022/10/10 05:28:52;;;;;;;14.37;13.07;;;;;;;10.55;100.00;93585.31;5051230;28;20244;-75
2022/10/10 05:31:17;;;;;;;16.83;14.47;;;;;;;10.74;100.00;93614.44;5052203;28;20186;-76
2022/10/10 05:33:43;;;;;;;21.83;19.93;;;;;;;10.70;100.00;93616.75;5050664;28;20261;-76
2022/10/10 05:36:11;;;;;;;22.80;20.57;;;;;;;10.80;100.00;93626.47;5051894;28;20190;-76
2022/10/10 05:38:37;;;;;;;27.13;24.27;;;;;;;10.74;100.00;93617.03;5050731;28;20243;-76
2022/10/10 05:41:03;;;;;;;30.27;25.67;;;;;;;11.06;100.00;93641.19;5052007;28;20187;-74
2022/10/10 05:43:29;;;;;;;35.20;28.13;;;;;;;11.01;100.00;93600.16;5056495;28;20244;-75
2022/10/10 05:45:54;;;;;;;30.50;25.30;;;;;;;11.21;100.00;93639.44;5071529;28;20195;-76
2022/10/10 05:48:20;;;;;;;30.73;25.33;;;;;;;11.15;100.00;93639.66;5071010;28;20228;-75
2022/10/10 05:50:51;;;;;;;35.47;26.93;;;;;;;11.18;100.00;93637.34;5071907;28;20270;-76
2022/10/10 05:53:17;;;;;;;32.37;26.30;;;;;;;11.20;100.00;93635.25;5070240;28;20248;-76
2022/10/10 05:55:43;;;;;;;30.87;25.87;;;;;;;11.36;100.00;93642.06;5071285;28;20204;-75
2022/10/10 05:58:12;;;;;;;32.13;26.13;;;;;;;11.53;100.00;93641.88;5070675;28;20284;-75
2022/10/10 06:00:37;;;;;;;32.40;27.20;;;;;;;11.52;100.00;93642.13;5071876;28;20197;-76
2022/10/10 06:03:03;;;;;;;29.83;26.27;;;;;;;11.71;100.00;93643.22;5069748;28;20231;-76
2022/10/10 06:05:29;;;;;;;32.30;26.93;;;;;;;11.62;100.00;93642.13;5070613;28;20257;-75
2022/10/10 06:07:54;;;;;;;33.93;26.50;;;;;;;11.77;100.00;93636.94;5070784;28;20260;-75
2022/10/10 06:10:19;;;;;;;34.93;26.57;;;;;;;12.15;100.00;93649.53;5070722;28;20213;-76
2022/10/10 06:12:45;;;;;;;28.97;24.70;;;;;;;12.36;99.70;93648.47;5069521;28;20258;-77
2022/10/10 06:15:10;;;;;;;31.20;26.20;;;;;;;12.40;100.00;93655.56;5071372;28;20189;-77
2022/10/10 06:17:36;;;;;;;30.40;25.33;;;;;;;12.57;99.40;93657.88;5070971;28;20186;-77
2022/10/10 06:20:02;;;;;;;32.40;25.23;;;;;;;12.53;98.54;93635.88;5071421;28;20193;-76
2022/10/10 06:22:28;;;;;;;28.33;24.40;;;;;;;13.05;96.00;93654.66;5070456;28;20225;-76
2022/10/10 06:24:53;;;;;;;32.57;24.70;;;;;;;13.05;95.60;93644.16;5070103;28;20221;-75
2022/10/10 06:27:18;;;;;;;25.03;22.53;;;;;;;13.12;94.78;93657.75;5070393;28;20206;-75
2022/10/10 06:29:44;;;;;;;24.60;21.90;;;;;;;13.39;91.56;93647.69;5069917;28;20221;-73
2022/10/10 06:32:09;;;;;;;26.20;23.33;;;;;;;13.47;92.40;93662.06;5070554;28;20190;-76
2022/10/10 06:34:34;;;;;;;25.13;22.63;;;;;;;13.41;92.70;93650.03;5068832;28;20229;-74
2022/10/10 06:37:00;;;;;;;27.03;24.23;;;;;;;13.59;91.07;93665.94;5070074;28;20257;-76
2022/10/10 06:39:25;;;;;;;28.50;22.97;;;;;;;13.78;88.59;93668.72;5070405;28;20290;-76
2022/10/10 06:41:51;;;;;;;30.53;24.03;;;;;;;13.49;89.42;93657.34;5069868;28;20190;-76
2022/10/10 06:44:16;;;;;;;30.87;22.70;;;;;;;13.36;91.34;93663.97;5068554;28;20284;-77
2022/10/10 06:46:42;;;;;;;26.67;22.20;;;;;;;13.67;90.14;93675.88;5070639;28;20213;-76
2022/10/10 06:49:08;;;;;;;21.17;19.00;;;;;;;14.01;86.84;93695.09;5069504;28;20310;-74
2022/10/10 06:51:33;;;;;;;17.73;16.17;;;;;;;14.03;84.94;93673.81;5069304;28;20263;-74
2022/10/10 06:53:59;;;;;;;17.80;16.23;;;;;;;14.02;86.09;93691.41;5069421;28;20229;-75
2022/10/10 06:56:24;;;;;;;18.20;16.57;;;;;;;13.64;85.54;93626.56;5069619;28;20266;-75
2022/10/10 06:58:50;;;;;;;18.50;16.63;;;;;;;14.26;85.04;93694.97;5069181;28;20236;-76
2022/10/10 07:01:21;;;;;;;24.30;22.17;;;;;;;13.66;86.46;93653.34;5065996;28;20225;-82
2022/10/10 07:03:47;;;;;;;18.83;17.03;;;;;;;14.37;84.87;93699.09;5063201;28;20229;-74
2022/10/10 07:06:12;;;;;;;19.57;17.67;;;;;;;13.60;87.93;93670.16;5068168;28;20280;-74
2022/10/10 07:08:39;;;;;;;27.13;17.27;;;;;;;13.68;87.01;93674.81;5061079;28;20247;-74
2022/10/10 07:11:06;;;;;;;23.27;17.70;;;;;;;14.25;85.56;93675.00;5068043;28;20178;-74
2022/10/10 07:13:31;;;;;;;17.63;16.00;;;;;;;14.21;83.58;93684.44;5057462;28;20238;-75
2022/10/10 07:15:57;;;;;;;17.63;16.03;;;;;;;14.67;81.94;93697.25;5047224;28;20846;-75
2022/10/10 07:18:22;;;;;;;17.80;16.20;;;;;;;14.46;83.84;93692.19;5044411;28;20238;-74
2022/10/10 07:20:48;;;;;;;16.43;14.93;;;;;;;15.01;80.99;93703.25;5043124;28;20199;-75
2022/10/10 07:23:14;;;;;;;16.07;14.70;;;;;;;15.14;80.66;93700.75;5039265;28;20229;-74
2022/10/10 07:25:41;;;;;;;17.10;15.33;;;;;;;15.01;81.97;93703.25;5042874;28;20197;-74
2022/10/10 07:28:07;;;;;;;17.80;16.03;;;;;;;14.85;81.02;93696.59;5045875;28;20738;-75
2022/10/10 07:30:38;;;;;;;15.87;14.47;;;;;;;15.23;80.38;93701.69;5084850;28;20186;-76
2022/10/10 07:33:03;;;;;;;16.87;15.40;;;;;;;14.99;79.65;93671.19;5066548;28;20807;-76
2022/10/10 07:35:28;;;;;;;18.13;16.00;;;;;;;15.22;78.47;93696.72;5069298;28;20201;-76
2022/10/10 07:37:55;;;;;;;17.43;15.83;;;;;;;14.99;80.40;93695.63;5068424;28;20229;-76
2022/10/10 07:40:21;;;;;;;17.70;16.20;;;;;;;15.61;77.63;93697.34;5068428;28;20204;-76
2022/10/10 07:42:46;;;;;;;17.70;15.90;;;;;;;15.58;76.61;93661.81;5068342;28;20182;-74
2022/10/10 07:45:12;;;;;;;18.60;16.70;;;;;;;15.11;80.15;93688.16;5067994;28;20189;-74
2022/10/10 07:47:38;;;;;;;41.73;31.20;;;;;;;15.62;78.76;93693.63;5066024;28;20212;-75
2022/10/10 07:50:05;;;;;;;20.27;18.20;;;;;;;15.45;78.47;93683.59;5067890;28;20189;-73
2022/10/10 07:52:30;;;;;;;18.80;16.80;;;;;;;15.66;77.51;93668.31;5068816;28;20189;-74
2022/10/10 07:54:56;;;;;;;18.80;15.70;;;;;;;15.88;76.19;93686.97;5068589;28;20210;-73
2022/10/10 07:57:21;;;;;;;15.00;13.80;;;;;;;15.79;74.48;93675.50;5069706;28;20244;-74
2022/10/10 07:59:46;;;;;;;18.13;13.50;;;;;;;15.98;73.65;93684.97;5067856;28;20241;-73
2022/10/10 08:02:12;;;;;;;13.90;12.83;;;;;;;15.93;73.57;93689.53;5067716;28;20197;-72
2022/10/10 08:04:37;;;;;;;13.17;12.10;;;;;;;15.92;72.96;93683.47;5068546;28;20225;-72
2022/10/10 08:07:03;;;;;;;13.43;12.33;;;;;;;16.04;73.99;93683.84;5061324;28;20217;-71
2022/10/10 08:09:28;;;;;;;13.20;12.20;;;;;;;16.32;73.21;93687.38;5067689;28;20220;-75
2022/10/10 08:11:53;;;;;;;14.20;12.93;;;;;;;16.44;72.12;93673.75;5068518;28;20230;-76
2022/10/10 08:14:19;;;;;;;13.63;12.43;;;;;;;16.61;71.67;93676.66;5068482;28;20289;-75
2022/10/10 08:16:44;;;;;;;13.77;12.67;;;;;;;16.62;70.50;93659.78;5069490;28;20216;-74
2022/10/10 08:19:10;;;;;;;12.97;11.83;;;;;;;16.90;70.91;93678.00;5066738;28;20733;-74
2022/10/10 08:21:35;;;;;;;13.03;12.13;;;;;;;17.12;68.85;93654.38;5066462;28;20190;-76
2022/10/10 08:24:01;;;;;;;12.33;11.33;;;;;;;17.23;67.44;93661.03;5067083;28;20233;-74
2022/10/10 08:26:26;;;;;;;13.70;12.63;;;;;;;17.40;66.89;93677.06;5068000;28;20194;-73
2022/10/10 08:28:52;;;;;;;13.00;12.10;;;;;;;17.36;66.33;93660.25;5067429;28;20312;-74
2022/10/10 08:31:19;;;;;;;13.27;12.17;;;;;;;17.48;66.29;93679.06;5069039;28;20185;-74
2022/10/10 08:33:46;;;;;;;12.93;11.93;;;;;;;17.62;66.17;93673.00;5067104;28;20264;-74
2022/10/10 08:36:15;;;;;;;13.47;12.37;;;;;;;17.67;65.45;93675.50;5068559;28;20178;-75
2022/10/10 08:38:40;;;;;;;13.83;12.73;;;;;;;17.83;65.60;93682.03;5067073;28;20245;-75
2022/10/10 08:41:09;;;;;;;13.13;12.23;;;;;;;17.83;64.50;93684.69;5068215;28;20181;-71
2022/10/10 08:43:44;;;;;;;11.73;10.70;;;;;;;17.87;63.50;93686.44;5066720;28;20229;-74
2022/10/10 08:46:26;;;;;;;13.17;12.10;;;;;;;17.75;64.61;93693.31;5067024;28;20207;-76
2022/10/10 08:48:55;;;;;;;14.03;12.27;;;;;;;17.85;64.41;93666.69;5068121;28;20229;-78
2022/10/10 08:51:30;;;;;;;13.93;12.73;;;;;;;18.25;63.36;93686.94;5068337;28;20193;-72
2022/10/10 08:54:00;;;;;;;12.13;11.33;;;;;;;18.18;62.79;93691.88;5068306;28;20239;-73
2022/10/10 08:56:29;;;;;;;12.10;11.30;;;;;;;18.13;61.46;93690.13;5069004;28;20186;-72
2022/10/10 08:59:13;;;;;;;12.27;11.17;;;;;;;18.09;61.68;93672.47;5068700;28;20214;-72
2022/10/10 09:01:39;;;;;;;12.80;11.90;;;;;;;18.17;61.94;93691.06;5072464;28;20244;-72
2022/10/10 09:04:07;;;;;;;12.63;11.63;;;;;;;18.23;61.78;93703.09;5072091;28;20263;-74
2022/10/10 09:07:11;;;;;;;12.73;11.73;;;;;;;18.43;61.31;93702.66;5070915;28;20219;-72
2022/10/10 09:09:47;;;;;;;13.07;12.17;;;;;;;18.31;61.68;93697.09;5070791;28;20232;-74
2022/10/10 09:13:03;;;;;;;12.77;11.80;;;;;;;18.20;61.10;93690.47;5071611;28;20192;-72
2022/10/10 09:15:44;;;;;;;12.90;12.00;;;;;;;18.36;61.06;93698.84;5037971;28;20228;-76
2022/10/10 09:18:19;;;;;;;13.50;12.40;;;;;;;18.49;61.16;93708.63;5060336;28;20234;-75
2022/10/10 09:21:13;;;;;;;12.37;11.27;;;;;;;18.41;60.59;93709.34;5050004;28;20177;-75
2022/10/10 09:23:45;;;;;;;14.53;13.43;;;;;;;18.47;60.69;93708.94;5073314;28;20233;-75
2022/10/10 09:26:13;;;;;;;12.27;11.13;;;;;;;18.16;62.20;93712.53;5070577;28;20185;-76
2022/10/10 09:28:47;;;;;;;12.03;11.13;;;;;;;18.40;61.11;93721.78;5070729;28;20262;-74
2022/10/10 09:31:43;;;;;;;13.20;11.93;;;;;;;18.57;61.21;93715.81;5071105;28;20194;-74
2022/10/10 09:34:21;;;;;;;12.80;11.90;;;;;;;18.50;61.25;93696.97;5064682;28;20226;-75
2022/10/10 09:36:47;;;;;;;12.47;11.50;;;;;;;18.64;60.43;93710.91;5071161;28;20187;-75
2022/10/10 09:39:42;;;;;;;13.53;12.37;;;;;;;18.70;60.79;93720.28;5070467;28;20237;-75
2022/10/10 09:42:13;;;;;;;11.63;10.70;;;;;;;18.76;60.20;93725.16;5071424;28;20232;-74
2022/10/10 09:44:41;;;;;;;12.07;11.17;;;;;;;19.05;59.42;93727.38;5069883;28;20217;-75
2022/10/10 09:47:11;;;;;;;12.10;11.20;;;;;;;19.18;58.84;93731.81;5069894;28;20210;-74
2022/10/10 09:49:36;;;;;;;16.63;12.37;;;;;;;18.93;58.82;93717.34;5070246;28;20252;-75
2022/10/10 09:52:31;;;;;;;12.73;11.73;;;;;;;18.82;58.24;93718.66;5071736;28;20214;-75
2022/10/10 09:55:20;;;;;;;12.57;11.67;;;;;;;18.53;61.50;93712.22;5070310;28;20221;-73
2022/10/10 09:57:46;;;;;;;11.93;11.07;;;;;;;18.80;60.38;93725.34;5069209;28;20207;-73
2022/10/10 10:00:18;;;;;;;11.70;10.80;;;;;;;19.03;59.32;93726.91;5070981;28;20170;-75
2022/10/10 10:02:47;;;;;;;12.37;11.57;;;;;;;18.88;59.12;93701.56;5070375;28;20197;-75
2022/10/10 10:05:22;;;;;;;12.83;11.83;;;;;;;18.99;59.02;93723.28;5070674;28;20195;-75
2022/10/10 10:07:51;;;;;;;12.37;11.33;;;;;;;19.09;57.52;93712.44;5070018;28;20207;-74
2022/10/10 10:10:20;;;;;;;11.43;10.57;;;;;;;19.20;58.12;93703.16;5069855;28;20191;-74
2022/10/10 10:12:46;;;;;;;12.57;11.67;;;;;;;19.41;58.31;93720.09;5070810;28;20240;-75
2022/10/10 10:15:27;;;;;;;12.87;11.77;;;;;;;19.47;55.80;93712.81;5069825;28;20181;-75
2022/10/10 10:18:15;;;;;;;11.93;11.03;;;;;;;19.13;57.26;93681.63;5069970;28;20199;-75
2022/10/10 10:20:43;;;;;;;12.93;11.53;;;;;;;19.44;57.67;93703.59;5070408;28;20192;-75
2022/10/10 10:23:35;;;;;;;11.57;10.77;;;;;;;19.44;56.10;93708.88;5069226;28;20224;-74
2022/10/10 10:26:13;;;;;;;12.13;11.20;;;;;;;19.36;56.50;93707.00;5069445;28;20199;-74
2022/10/10 10:28:40;;;;;;;12.67;11.57;;;;;;;19.25;56.88;93708.34;5069136;28;20234;-75
2022/10/10 10:31:15;;;;;;;12.20;11.07;;;;;;;19.19;57.30;93686.47;5069317;28;20220;-75
2022/10/10 10:33:57;;;;;;;15.47;14.07;;;;;;;19.31;57.33;93701.84;5070397;28;20222;-75
2022/10/10 10:36:45;;;;;;;12.80;11.77;;;;;;;19.09;58.86;93705.28;5069794;28;20725;-74
2022/10/10 10:39:37;;;;;;;14.40;13.20;;;;;;;19.30;58.06;93713.50;5068863;28;20861;-75
2022/10/10 10:42:40;;;;;;;12.03;11.23;;;;;;;19.02;58.24;93704.94;5067500;28;20191;-76
2022/10/10 10:45:14;;;;;;;13.83;12.60;;;;;;;18.63;58.87;93701.44;5068069;28;20222;-75
2022/10/10 10:48:17;;;;;;;13.27;12.17;;;;;;;18.66;58.41;93693.66;5067960;28;20207;-78
2022/10/10 10:50:45;;;;;;;12.60;11.67;;;;;;;18.57;58.90;93695.47;5049284;28;20193;-77
2022/10/10 10:53:11;;;;;;;11.73;10.93;;;;;;;18.47;59.56;93705.50;5063141;28;20233;-74
2022/10/10 10:55:43;;;;;;;12.53;11.63;;;;;;;18.53;59.05;93705.09;5050139;28;20194;-73
2022/10/10 10:58:49;;;;;;;12.80;11.90;;;;;;;18.39;60.27;93690.34;5046691;28;20230;-73
2022/10/10 11:01:26;;;;;;;12.67;11.87;;;;;;;18.45;59.93;93697.06;5026286;28;20191;-73
2022/10/10 11:04:22;;;;;;;12.97;12.07;;;;;;;18.32;61.22;93692.59;5055723;28;20234;-75
2022/10/10 11:07:23;;;;;;;13.33;12.30;;;;;;;18.38;61.14;93678.22;5068352;28;20277;-74
2022/10/10 11:09:58;;;;;;;13.37;12.27;;;;;;;17.93;60.74;93621.84;5043863;28;20317;-74
2022/10/10 11:13:01;;;;;;;12.57;11.53;;;;;;;18.27;60.15;93639.84;5043697;28;20188;-75
2022/10/10 11:15:35;;;;;;;11.63;10.73;;;;;;;18.59;59.73;93669.50;5050880;28;20217;-72
2022/10/10 11:18:14;;;;;;;12.90;12.00;;;;;;;18.59;59.86;93655.47;5064722;28;20280;-71
2022/10/10 11:20:45;;;;;;;12.47;11.47;;;;;;;18.77;59.41;93668.50;5072973;28;20194;-73
2022/10/10 11:23:19;;;;;;;12.70;11.70;;;;;;;18.70;59.75;93664.72;5047236;28;20240;-72
2022/10/10 11:25:53;;;;;;;12.47;11.67;;;;;;;18.71;59.70;93675.00;5043961;28;20196;-72
2022/10/10 11:28:32;;;;;;;12.43;11.13;;;;;;;18.62;60.77;93670.75;5049298;28;20242;-72